KHPN/HPN METAR and TAF weather

Enter ICAO airport designator
Station Type Date Time Source
KHPN METAR 2019/12/08 13:56 UTC NOAA

KHPN 081356Z 12003KT 10SM CLR M02/M11 A3051 RMK AO2 SLP343 T10221106 $


Station Type Date Time Source
KHPN Decoded METAR 2019/12/08 13:56 UTC NOAA

WHITE PLAINS WESTCHESTER, NY, United States (KHPN) 41-04N 073-42W 121M
Dec 08, 2019 - 08:56 AM EST / 2019.12.08 1356 UTC
Wind: from the ESE (120 degrees) at 3 MPH (3 KT):0
Visibility: 10 mile(s):0
Sky conditions: clear
Temperature: 28.0 F (-2.2 C)
Dew Point: 12.9 F (-10.6 C)
Relative Humidity: 52%
Pressure (altimeter): 30.51 in. Hg (1033 hPa)
ob: KHPN 081356Z 12003KT 10SM CLR M02/M11 A3051 RMK AO2 SLP343 T10221106
cycle: 14

Station Type Date Time Source
KHPN TAF 2019/12/08 12:33 UTC NOAA

TAF KHPN 081130Z 0812/0912 VRB02KT P6SM FEW250
FM081500 17007KT P6SM SCT250
FM090000 19006KT P6SM FEW035 BKN250
FM090500 20004KT P6SM SCT025 BKN035
TEMPO 0907/0911 -RA BKN025 BKN035
FM091100 VRB03KT 5SM -RA BR SCT008 OVC015
AMD NOT SKED

Example: see airport list